Impacts METAR Board INFO
IDs:

KBDR - Bridgeport/Sikorsky, CT, US

Updated at: 1851 UTC 16 Dec 2017
Potential Impact None Slight Moderate High
Time16/06Z 16/07Z 16/08Z 16/09Z 16/10Z 16/11Z 16/12Z 16/13Z 16/14Z 16/15Z 16/16Z 16/17Z 16/18Z
VIS10 10 9 9 10 10 10 9 10 9 10 10 10
CIG-- -- -- -- -- -- -- -- -- 100 -- -- 50
CoverSCTCLRCLRCLRCLRCLRCLRCLRCLROVCSCTSCTOVC
FltCatVFRVFRVFRVFRVFRVFRVFRVFRVFRVFRVFRVFRVFR
WX--------------------------
WDir250260270280260260260260250250250270260
WSpd9 7 7 5 7 7 8 10 13 13 12 12 12
WGst-- -- -- -- -- -- -- 18 24 22 19 21 17
Raw hourly METARs
KBDR 160552Z AUTO 25009KT 10SM SCT080 M05/M08 A2988 RMK AO2 SLP119 60003 T10501078 11033 21056 58002
KBDR 160652Z AUTO 26007KT 10SM CLR M06/M08 A2989 RMK AO2 SLP121 T10561083
KBDR 160752Z AUTO 27007KT 9SM CLR M06/M08 A2991 RMK AO2 SLP128 T10611083
KBDR 160852Z AUTO 28005KT 9SM CLR M06/M09 A2993 RMK AO2 SLP134 T10611089 53015
KBDR 160952Z AUTO 26007KT 10SM CLR M06/M09 A2994 RMK AO2 SLP139 T10611089
KBDR 161052Z AUTO 26007KT 10SM CLR M04/M08 A2995 RMK AO2 SLP141 T10441078
KBDR 161152Z 26008KT 10SM CLR M04/M09 A2997 RMK AO2 SLP149 70009 T10441089 11039 21067 53015
KBDR 161252Z 26010G18KT 9SM CLR M03/M07 A2999 RMK AO2 SLP155 T10281072
KBDR 161352Z 25013G24KT 10SM CLR M02/M07 A3002 RMK AO2 PK WND 26026/1319 UPB09E15SNB15E21 SLP164 P0000 T10171072
KBDR 161452Z 25013G22KT 9SM BKN100 OVC110 M01/M07 A3004 RMK AO2 SLP173 60000 T10111072 53024
KBDR 161552Z 25012G19KT 10SM SCT090 01/M07 A3003 RMK AO2 SLP169 T00061067
KBDR 161652Z 27012G21KT 10SM SCT047 02/M07 A3000 RMK AO2 SLP159 T00171067
KBDR 161752Z 26012G17KT 10SM BKN050 OVC070 02/M06 A2997 RMK AO2 SLP149 60000 T00171061 10022 21050 58024